Time;durP1;ratioP1;P1;durP2;ratioP2;P2;SDS_P1;SDS_P2;PMS_P1;PMS_P2;Temp;Humidity;BMP_temperature;BMP_pressure;BME280_temperature;BME280_humidity;BME280_pressure;Samples;Min_cycle;Max_cycle;Signal;HPM_P1;HPM_P2
2023/06/16 00:01:02;;;;;;;10.93;4.43;;;19.50;99.90;;;;;;5074011;28;20181;-48
2023/06/16 00:03:28;;;;;;;9.30;4.13;;;19.40;99.90;;;;;;5073815;28;20202;-48
2023/06/16 00:05:55;;;;;;;9.80;4.13;;;19.60;99.90;;;;;;5073629;28;20806;-48
2023/06/16 00:08:21;;;;;;;5.20;4.22;;;19.50;99.90;;;;;;5073470;28;20308;-48
2023/06/16 00:10:47;;;;;;;6.10;4.03;;;19.50;99.90;;;;;;5073300;28;20653;-48
2023/06/16 00:13:13;;;;;;;7.95;3.88;;;19.40;99.90;;;;;;5073582;28;20287;-48
2023/06/16 00:15:39;;;;;;;7.55;4.35;;;19.50;99.90;;;;;;5073871;28;20654;-48
2023/06/16 00:18:04;;;;;;;9.82;5.00;;;19.20;99.90;;;;;;5074068;28;20209;-48
2023/06/16 00:20:32;;;;;;;6.20;4.63;;;19.40;99.90;;;;;;5073386;28;20219;-48
2023/06/16 00:22:58;;;;;;;7.97;4.70;;;19.20;99.90;;;;;;5073268;28;20689;-48
2023/06/16 00:25:24;;;;;;;11.38;4.80;;;19.10;99.90;;;;;;5073420;28;20584;-48
2023/06/16 00:27:49;;;;;;;9.90;4.47;;;18.80;99.90;;;;;;5073330;28;20163;-48
2023/06/16 00:30:15;;;;;;;16.15;4.55;;;18.70;99.90;;;;;;5073268;28;20157;-48
2023/06/16 00:32:41;;;;;;;6.72;4.75;;;;;;;;;;5073251;28;20166;-48
2023/06/16 00:35:07;;;;;;;9.60;4.72;;;19.20;99.90;;;;;;5073493;28;20265;-48
2023/06/16 00:37:33;;;;;;;11.40;5.20;;;19.20;99.90;;;;;;5073043;28;20173;-48
2023/06/16 00:39:58;;;;;;;9.02;4.90;;;19.10;99.90;;;;;;5073258;28;20174;-48
2023/06/16 00:42:24;;;;;;;8.23;5.40;;;;;;;;;;5072942;28;20584;-48
2023/06/16 00:44:50;;;;;;;9.50;4.50;;;18.80;99.90;;;;;;5072822;28;20206;-48
2023/06/16 00:47:16;;;;;;;5.55;4.15;;;19.00;99.90;;;;;;5072895;28;20241;-48
2023/06/16 00:49:41;;;;;;;8.13;4.30;;;19.00;99.90;;;;;;5072781;28;20702;-48
2023/06/16 00:52:09;;;;;;;7.40;4.70;;;18.90;99.90;;;;;;5073430;28;20249;-49
2023/06/16 00:54:36;;;;;;;6.32;4.47;;;19.30;99.90;;;;;;5073399;28;20170;-49
2023/06/16 00:57:02;;;;;;;8.45;4.05;;;18.90;99.90;;;;;;5072732;28;20163;-49
2023/06/16 00:59:29;;;;;;;7.43;4.05;;;18.50;99.90;;;;;;5072651;28;20174;-49
2023/06/16 01:01:55;;;;;;;8.75;4.70;;;19.20;99.90;;;;;;5071785;28;20161;-48
2023/06/16 01:04:24;;;;;;;8.07;4.82;;;19.20;99.90;;;;;;5072340;28;20213;-48
2023/06/16 01:06:57;;;;;;;5.82;4.05;;;19.00;99.90;;;;;;5072550;28;20173;-48
2023/06/16 01:09:31;;;;;;;6.07;4.20;;;18.80;99.90;;;;;;5072653;28;20194;-49
2023/06/16 01:12:09;;;;;;;8.68;4.20;;;18.80;99.90;;;;;;5072290;28;20161;-48
2023/06/16 01:14:49;;;;;;;9.10;4.70;;;18.70;99.90;;;;;;5072706;28;20158;-49
2023/06/16 01:17:16;;;;;;;5.85;3.78;;;18.30;99.90;;;;;;5072270;28;20158;-49
2023/06/16 01:20:09;;;;;;;4.60;4.10;;;18.40;99.90;;;;;;5072477;28;20253;-48
2023/06/16 01:23:02;;;;;;;5.55;4.18;;;18.00;99.90;;;;;;5069325;28;20244;-48
2023/06/16 01:25:31;;;;;;;5.18;4.07;;;18.90;99.90;;;;;;5072010;28;20210;-49
2023/06/16 01:27:58;;;;;;;6.72;4.03;;;18.60;99.90;;;;;;5072130;28;20247;-48
2023/06/16 01:30:25;;;;;;;7.50;4.80;;;18.70;99.90;;;;;;5072009;28;20606;-49
2023/06/16 01:32:54;;;;;;;5.60;4.13;;;18.60;99.90;;;;;;5072049;28;20679;-49
2023/06/16 01:35:21;;;;;;;7.75;4.50;;;18.40;99.90;;;;;;5071963;28;20162;-49
2023/06/16 01:37:50;;;;;;;7.20;3.95;;;18.40;99.90;;;;;;5071884;28;20179;-48
2023/06/16 01:40:17;;;;;;;9.48;4.40;;;18.40;99.90;;;;;;5071777;28;20767;-51
2023/06/16 01:42:46;;;;;;;5.15;4.05;;;18.40;99.90;;;;;;5072082;28;20185;-48
2023/06/16 01:45:13;;;;;;;6.20;3.42;;;18.40;99.90;;;;;;5071776;28;20198;-49
2023/06/16 01:47:38;;;;;;;5.78;4.45;;;18.40;99.90;;;;;;5072267;28;20644;-49
2023/06/16 01:50:05;;;;;;;6.13;4.60;;;18.30;99.90;;;;;;5072197;28;20165;-49
2023/06/16 01:52:30;;;;;;;5.32;4.05;;;18.20;99.90;;;;;;5071728;28;20173;-49
2023/06/16 01:54:56;;;;;;;8.48;4.57;;;18.20;99.90;;;;;;5071657;28;20165;-49
2023/06/16 01:57:22;;;;;;;8.25;4.57;;;18.20;99.90;;;;;;5071682;28;20522;-48
2023/06/16 01:59:56;;;;;;;7.57;4.45;;;18.10;99.90;;;;;;5071734;28;20717;-48
2023/06/16 02:02:26;;;;;;;7.13;4.35;;;18.20;99.90;;;;;;5071693;28;20561;-48
2023/06/16 02:04:53;;;;;;;4.68;4.07;;;18.20;99.90;;;;;;5053618;28;20213;-48
2023/06/16 02:07:23;;;;;;;6.03;4.30;;;18.10;99.90;;;;;;5071449;28;20206;-48
2023/06/16 02:09:50;;;;;;;4.35;3.92;;;18.00;99.90;;;;;;5071591;28;20705;-48
2023/06/16 02:12:17;;;;;;;7.25;4.40;;;18.00;99.90;;;;;;5071730;28;20181;-49
2023/06/16 02:14:44;;;;;;;5.07;4.47;;;18.00;99.90;;;;;;5071329;28;20200;-49
2023/06/16 02:17:12;;;;;;;10.93;4.20;;;18.00;99.90;;;;;;5071738;28;20173;-48
2023/06/16 02:19:38;;;;;;;6.03;4.10;;;18.00;99.90;;;;;;5071837;28;20169;-48
2023/06/16 02:22:04;;;;;;;6.57;4.15;;;17.90;99.90;;;;;;5071811;28;20166;-48
2023/06/16 02:24:30;;;;;;;6.82;3.88;;;17.90;99.90;;;;;;5071304;28;20209;-49
2023/06/16 02:26:56;;;;;;;5.75;4.30;;;18.00;99.90;;;;;;5071393;28;20158;-48
2023/06/16 02:29:22;;;;;;;7.57;4.50;;;17.80;99.90;;;;;;5071334;28;20502;-48
2023/06/16 02:31:49;;;;;;;10.90;5.13;;;17.70;99.90;;;;;;5071244;28;20166;-49
2023/06/16 02:34:15;;;;;;;8.55;4.65;;;17.60;99.90;;;;;;5071561;28;20177;-49
2023/06/16 02:36:41;;;;;;;6.45;5.10;;;17.70;99.90;;;;;;5071278;28;20162;-49
2023/06/16 02:39:07;;;;;;;6.07;5.00;;;17.80;99.90;;;;;;5071710;28;20181;-48
2023/06/16 02:41:33;;;;;;;6.38;4.28;;;17.90;99.90;;;;;;5071214;28;20169;-49
2023/06/16 02:43:59;;;;;;;9.55;4.47;;;17.90;99.90;;;;;;5071190;28;20212;-50
2023/06/16 02:46:24;;;;;;;9.23;4.93;;;17.80;99.90;;;;;;5071458;28;20253;-49
2023/06/16 02:48:50;;;;;;;8.50;4.57;;;17.90;99.90;;;;;;5071260;28;20592;-50
2023/06/16 02:51:16;;;;;;;8.93;4.75;;;17.80;99.90;;;;;;5071126;28;20626;-50
2023/06/16 02:53:45;;;;;;;8.65;5.13;;;17.80;99.90;;;;;;5071126;28;20170;-49
2023/06/16 02:56:11;;;;;;;8.10;4.18;;;17.80;99.90;;;;;;5071061;28;20158;-49
2023/06/16 02:58:37;;;;;;;6.97;4.57;;;17.80;99.90;;;;;;5071675;28;20178;-50
2023/06/16 03:01:04;;;;;;;6.22;4.40;;;17.80;99.90;;;;;;5071437;28;20173;-50
2023/06/16 03:03:31;;;;;;;5.55;4.18;;;17.80;99.90;;;;;;5071190;28;20173;-48
2023/06/16 03:05:58;;;;;;;6.65;4.05;;;17.80;99.90;;;;;;5071250;28;20185;-48
2023/06/16 03:08:24;;;;;;;5.70;4.07;;;17.80;99.90;;;;;;5070797;28;20218;-49
2023/06/16 03:10:51;;;;;;;6.38;4.03;;;17.80;99.90;;;;;;5071210;28;20166;-48
2023/06/16 03:13:17;;;;;;;5.55;3.88;;;17.70;99.90;;;;;;5071234;28;20176;-48
2023/06/16 03:15:44;;;;;;;9.10;4.72;;;17.60;99.90;;;;;;5070897;28;20205;-48
2023/06/16 03:18:10;;;;;;;7.40;4.60;;;17.40;99.90;;;;;;5071066;28;20581;-48
2023/06/16 03:20:36;;;;;;;7.78;4.10;;;17.30;99.90;;;;;;5071468;28;20174;-48
2023/06/16 03:23:02;;;;;;;9.30;4.97;;;17.30;99.90;;;;;;5071083;28;20622;-48
2023/06/16 03:25:30;;;;;;;11.02;4.80;;;17.30;99.90;;;;;;5071364;28;20308;-49
2023/06/16 03:27:56;;;;;;;10.02;4.32;;;17.20;99.90;;;;;;5074546;28;20174;-48
2023/06/16 03:30:22;;;;;;;8.52;4.43;;;17.20;99.90;;;;;;5074275;28;20686;-48
2023/06/16 03:32:47;;;;;;;7.75;4.10;;;17.30;99.90;;;;;;5074348;28;20158;-49
2023/06/16 03:35:13;;;;;;;7.20;4.75;;;17.20;99.90;;;;;;5074254;28;20629;-48
2023/06/16 03:37:39;;;;;;;7.20;4.20;;;17.10;99.90;;;;;;5074456;28;20193;-49
2023/06/16 03:40:06;;;;;;;6.28;4.20;;;17.30;99.90;;;;;;5074573;28;20178;-49
2023/06/16 03:42:35;;;;;;;9.27;4.70;;;17.40;99.90;;;;;;5074325;28;20185;-49
2023/06/16 03:45:01;;;;;;;5.05;4.20;;;17.40;99.90;;;;;;5074031;28;20210;-49
2023/06/16 03:47:27;;;;;;;8.15;4.63;;;17.40;99.90;;;;;;5074155;28;20275;-49
2023/06/16 03:49:54;;;;;;;8.57;5.30;;;17.30;99.90;;;;;;5056051;28;20311;-49
2023/06/16 03:52:20;;;;;;;7.90;4.53;;;17.40;99.90;;;;;;5055987;28;20164;-49
2023/06/16 03:54:45;;;;;;;11.52;4.75;;;17.40;99.90;;;;;;5073889;28;20162;-49
2023/06/16 03:57:12;;;;;;;9.35;5.18;;;17.50;99.90;;;;;;5073882;28;20174;-48
2023/06/16 03:59:38;;;;;;;5.75;4.60;;;;;;;;;;5074048;28;20585;-49
2023/06/16 04:02:07;;;;;;;8.80;4.90;;;17.60;99.90;;;;;;5074236;28;20271;-48
2023/06/16 04:04:36;;;;;;;9.23;4.40;;;17.50;99.90;;;;;;5073606;28;20285;-48
2023/06/16 04:07:03;;;;;;;6.80;4.32;;;17.50;99.90;;;;;;5073777;28;20178;-47
2023/06/16 04:09:32;;;;;;;5.88;4.88;;;17.40;99.90;;;;;;5073691;28;20178;-48
2023/06/16 04:11:58;;;;;;;9.68;4.63;;;17.20;99.90;;;;;;5073984;28;20166;-48
2023/06/16 04:14:23;;;;;;;10.57;5.25;;;17.40;99.90;;;;;;5073496;28;20196;-48
2023/06/16 04:16:49;;;;;;;9.18;4.97;;;17.40;99.90;;;;;;5073564;28;20223;-48
2023/06/16 04:19:17;;;;;;;5.40;4.25;;;17.60;99.90;;;;;;5073684;28;20197;-48
2023/06/16 04:21:43;;;;;;;8.05;5.53;;;17.70;99.90;;;;;;5073711;28;20197;-48
2023/06/16 04:24:10;;;;;;;10.32;4.90;;;;;;;;;;5055236;28;20665;-49
2023/06/16 04:26:35;;;;;;;11.13;4.72;;;17.50;99.90;;;;;;5073777;28;20253;-49
2023/06/16 04:29:03;;;;;;;5.80;4.03;;;17.10;99.90;;;;;;5072981;28;20200;-48
2023/06/16 04:31:31;;;;;;;8.07;5.20;;;17.90;99.90;;;;;;5073434;28;20523;-49
2023/06/16 04:34:01;;;;;;;7.38;4.63;;;18.10;99.90;;;;;;5073288;28;20174;-49
2023/06/16 04:36:29;;;;;;;6.88;4.95;;;18.20;99.90;;;;;;5073117;28;20249;-48
2023/06/16 04:38:56;;;;;;;10.65;5.13;;;18.40;99.90;;;;;;5073339;28;20177;-48
2023/06/16 04:41:22;;;;;;;8.93;4.68;;;18.40;99.90;;;;;;5073205;28;20505;-48
2023/06/16 04:43:48;;;;;;;13.13;4.88;;;18.50;99.90;;;;;;5072643;28;20190;-49
2023/06/16 04:46:14;;;;;;;7.15;5.25;;;18.50;99.90;;;;;;5072973;28;20185;-49
2023/06/16 04:48:39;;;;;;;10.55;4.78;;;18.30;99.90;;;;;;5072912;28;20166;-49
2023/06/16 04:51:05;;;;;;;8.77;5.40;;;18.60;99.90;;;;;;5073283;28;20162;-48
2023/06/16 04:53:31;;;;;;;8.30;5.57;;;18.40;99.90;;;;;;5072740;28;20166;-48
2023/06/16 04:55:57;;;;;;;8.30;5.03;;;18.40;99.90;;;;;;5072728;28;20167;-48
2023/06/16 04:58:22;;;;;;;5.70;4.20;;;18.40;99.90;;;;;;5072633;28;20173;-48
2023/06/16 05:00:48;;;;;;;7.90;4.95;;;18.60;99.90;;;;;;5072648;28;20579;-48
2023/06/16 05:03:13;;;;;;;14.73;5.32;;;18.70;99.90;;;;;;5072515;28;20592;-48
2023/06/16 05:05:39;;;;;;;10.00;5.38;;;18.90;99.90;;;;;;5072500;28;20653;-48
2023/06/16 05:08:05;;;;;;;7.38;5.03;;;19.00;99.90;;;;;;5072736;28;20249;-48
2023/06/16 05:10:31;;;;;;;9.07;5.60;;;18.50;99.90;;;;;;5072656;28;20189;-48
2023/06/16 05:12:59;;;;;;;9.85;5.15;;;18.50;99.90;;;;;;5072508;28;20181;-48
2023/06/16 05:15:25;;;;;;;8.73;5.68;;;18.70;99.90;;;;;;5071832;28;20173;-48
2023/06/16 05:17:51;;;;;;;9.35;5.85;;;18.70;99.90;;;;;;5072273;28;20170;-48
2023/06/16 05:20:16;;;;;;;9.65;5.30;;;18.90;99.90;;;;;;5072114;28;20648;-48
2023/06/16 05:22:42;;;;;;;9.63;5.88;;;19.10;99.90;;;;;;5072298;28;20166;-49
2023/06/16 05:25:08;;;;;;;7.05;5.25;;;19.40;99.90;;;;;;5072404;28;20252;-48
2023/06/16 05:27:33;;;;;;;8.30;5.40;;;20.00;99.90;;;;;;5072541;28;20245;-49
2023/06/16 05:30:00;;;;;;;8.63;4.85;;;19.70;99.90;;;;;;5071787;28;20247;-49
2023/06/16 05:32:26;;;;;;;9.07;4.78;;;19.60;99.90;;;;;;5071990;28;20165;-49
2023/06/16 05:34:52;;;;;;;7.00;4.70;;;20.20;99.90;;;;;;5070549;28;20178;-49
2023/06/16 05:37:19;;;;;;;7.57;5.15;;;20.10;99.90;;;;;;5071582;28;20177;-48
2023/06/16 05:39:48;;;;;;;9.90;4.97;;;20.30;99.90;;;;;;5071720;28;20162;-49
2023/06/16 05:42:15;;;;;;;10.00;4.85;;;20.20;99.90;;;;;;5071599;28;20166;-48
2023/06/16 05:44:44;;;;;;;9.77;5.53;;;20.80;99.90;;;;;;5071619;28;20616;-49
2023/06/16 05:47:10;;;;;;;9.25;5.00;;;20.60;99.90;;;;;;5071373;28;20163;-49
2023/06/16 05:49:36;;;;;;;7.80;5.22;;;20.70;99.90;;;;;;5071284;28;20571;-49
2023/06/16 05:52:04;;;;;;;7.68;5.15;;;20.70;99.90;;;;;;5071587;28;20166;-49
2023/06/16 05:54:29;;;;;;;9.38;5.45;;;20.60;99.90;;;;;;5071542;28;20205;-49
2023/06/16 05:56:58;;;;;;;8.05;5.35;;;20.90;99.90;;;;;;5071511;28;20169;-49
2023/06/16 05:59:26;;;;;;;6.47;5.20;;;20.60;99.90;;;;;;5071434;28;20661;-48
2023/06/16 06:01:52;;;;;;;7.05;5.15;;;21.10;99.90;;;;;;5071790;28;20181;-49
2023/06/16 06:04:30;;;;;;;7.95;4.85;;;21.10;99.90;;;;;;5071523;28;20224;-49
2023/06/16 06:06:56;;;;;;;8.77;4.85;;;20.70;99.90;;;;;;5071646;28;20166;-49
2023/06/16 06:09:22;;;;;;;10.43;5.45;;;20.90;99.90;;;;;;5071872;28;20185;-52
2023/06/16 06:11:48;;;;;;;11.82;5.10;;;21.00;99.90;;;;;;5071749;28;20590;-48
2023/06/16 06:14:14;;;;;;;9.50;5.30;;;21.20;99.90;;;;;;5071491;28;20166;-48
2023/06/16 06:16:40;;;;;;;7.35;5.22;;;21.10;99.90;;;;;;5071678;28;20196;-48
2023/06/16 06:19:05;;;;;;;10.82;5.85;;;21.40;99.90;;;;;;5072115;28;20219;-49
2023/06/16 06:21:32;;;;;;;6.72;5.60;;;21.30;99.90;;;;;;5071432;28;20169;-50
2023/06/16 06:23:57;;;;;;;6.28;4.72;;;21.10;99.90;;;;;;5071327;28;20294;-51
2023/06/16 06:26:23;;;;;;;8.07;5.63;;;21.40;99.90;;;;;;5071352;28;20215;-51
2023/06/16 06:28:49;;;;;;;12.18;5.40;;;21.10;99.90;;;;;;5071428;28;20192;-51
2023/06/16 06:31:15;;;;;;;8.32;5.07;;;21.40;99.90;;;;;;5085091;28;20647;-50
2023/06/16 06:33:41;;;;;;;8.02;5.07;;;21.50;99.90;;;;;;5089646;28;20700;-51
2023/06/16 06:36:06;;;;;;;14.18;5.35;;;21.40;99.90;;;;;;5090184;28;20256;-51
2023/06/16 06:38:32;;;;;;;9.52;5.10;;;21.20;99.90;;;;;;5089670;28;20223;-51
2023/06/16 06:40:58;;;;;;;8.45;4.47;;;;;;;;;;5089684;28;20166;-50
2023/06/16 06:43:25;;;;;;;5.50;4.43;;;;;;;;;;5089791;28;20227;-50
2023/06/16 06:45:51;;;;;;;5.80;4.25;;;;;;;;;;5089955;28;20739;-51
2023/06/16 06:48:17;;;;;;;6.35;4.30;;;22.00;99.90;;;;;;5089529;28;20698;-52
2023/06/16 06:50:43;;;;;;;8.88;3.83;;;21.90;99.90;;;;;;5090898;28;20197;-51
2023/06/16 06:53:09;;;;;;;8.73;4.45;;;21.80;99.90;;;;;;5091238;28;20170;-51
2023/06/16 06:55:35;;;;;;;8.60;4.22;;;21.80;99.90;;;;;;5091644;28;20157;-51
2023/06/16 06:58:00;;;;;;;6.78;3.85;;;22.20;99.90;;;;;;5091243;28;20576;-51
2023/06/16 07:00:26;;;;;;;10.57;4.55;;;22.40;99.90;;;;;;5093215;28;20192;-51
2023/06/16 07:02:51;;;;;;;7.22;4.75;;;22.20;99.90;;;;;;5095140;28;20640;-51
2023/06/16 07:05:17;;;;;;;4.45;4.03;;;22.50;99.90;;;;;;5094963;28;20216;-51
2023/06/16 07:07:43;;;;;;;8.68;4.60;;;22.30;99.90;;;;;;5094892;28;20217;-51
2023/06/16 07:10:10;;;;;;;8.07;4.47;;;22.70;99.90;;;;;;5095021;28;20533;-51
2023/06/16 07:12:36;;;;;;;6.72;4.03;;;22.90;99.90;;;;;;5095549;28;20173;-51
2023/06/16 07:15:01;;;;;;;8.45;4.03;;;22.80;99.90;;;;;;5094850;28;20212;-51
2023/06/16 07:17:27;;;;;;;9.73;4.40;;;22.90;99.90;;;;;;5094800;28;20197;-51
2023/06/16 07:19:53;;;;;;;12.75;4.75;;;22.80;99.90;;;;;;5095122;28;20184;-50
2023/06/16 07:22:19;;;;;;;4.53;3.90;;;22.90;99.90;;;;;;5094793;28;20215;-51
2023/06/16 07:24:45;;;;;;;4.82;3.97;;;23.00;99.90;;;;;;5094903;28;20212;-50
2023/06/16 07:27:11;;;;;;;5.90;4.05;;;23.40;99.90;;;;;;5094807;28;20161;-51
2023/06/16 07:29:36;;;;;;;8.07;4.78;;;23.30;99.90;;;;;;5095089;28;20191;-50
2023/06/16 07:32:03;;;;;;;5.95;4.53;;;23.30;99.90;;;;;;5076442;28;20653;-51
2023/06/16 07:34:29;;;;;;;5.50;4.35;;;23.40;99.90;;;;;;5094489;28;20640;-51
2023/06/16 07:36:54;;;;;;;5.53;4.25;;;23.30;99.90;;;;;;5094448;28;20245;-50
2023/06/16 07:39:21;;;;;;;5.70;4.18;;;23.60;99.90;;;;;;5094729;28;20192;-50
2023/06/16 07:41:47;;;;;;;6.97;4.68;;;;;;;;;;5094573;28;20268;-50
2023/06/16 07:44:13;;;;;;;6.45;4.40;;;24.00;99.90;;;;;;5094338;28;20732;-50
2023/06/16 07:46:40;;;;;;;10.02;4.18;;;24.00;99.90;;;;;;5094308;28;20518;-50
2023/06/16 07:49:05;;;;;;;7.32;4.80;;;23.70;99.90;;;;;;5094547;28;20652;-50
2023/06/16 07:51:31;;;;;;;6.80;3.92;;;24.10;99.90;;;;;;5094206;28;20174;-50
2023/06/16 07:53:56;;;;;;;7.90;4.75;;;24.10;99.90;;;;;;5094134;28;20169;-50
2023/06/16 07:56:22;;;;;;;9.68;4.75;;;24.00;99.90;;;;;;5094129;28;20173;-49
2023/06/16 07:58:47;;;;;;;5.63;4.63;;;23.90;99.90;;;;;;5094120;28;20656;-49
2023/06/16 08:01:13;;;;;;;10.75;5.60;;;24.10;99.90;;;;;;5094273;28;20185;-50
2023/06/16 08:03:39;;;;;;;8.50;5.45;;;24.30;99.90;;;;;;5093626;28;20643;-50
2023/06/16 08:06:05;;;;;;;8.25;5.72;;;23.80;99.90;;;;;;5094512;28;20174;-49
2023/06/16 08:08:32;;;;;;;7.95;5.47;;;;;;;;;;5093610;28;20233;-50
2023/06/16 08:10:58;;;;;;;7.88;5.88;;;24.40;99.90;;;;;;5093423;28;20655;-49
2023/06/16 08:13:26;;;;;;;7.45;5.63;;;24.30;99.90;;;;;;5093524;28;20575;-49
2023/06/16 08:15:51;;;;;;;8.60;5.25;;;24.10;98.60;;;;;;5093768;28;20158;-49
2023/06/16 08:18:20;;;;;;;5.57;4.75;;;24.20;99.30;;;;;;5093693;28;20192;-49
2023/06/16 08:20:46;;;;;;;7.05;4.70;;;24.30;99.80;;;;;;5093661;28;20161;-50
2023/06/16 08:23:12;;;;;;;7.63;4.22;;;24.60;99.10;;;;;;5075524;28;20161;-49
2023/06/16 08:25:38;;;;;;;6.65;4.20;;;24.40;98.90;;;;;;5093454;28;20216;-49
2023/06/16 08:28:05;;;;;;;5.57;3.97;;;24.60;99.20;;;;;;5093916;28;20166;-49
2023/06/16 08:30:30;;;;;;;8.07;4.20;;;25.00;97.50;;;;;;5093521;28;20188;-52
2023/06/16 08:32:56;;;;;;;6.18;4.13;;;25.00;96.70;;;;;;5093399;28;20612;-49
2023/06/16 08:35:22;;;;;;;6.38;4.22;;;25.50;96.80;;;;;;5093315;28;20161;-49
2023/06/16 08:37:47;;;;;;;6.95;3.53;;;25.20;95.00;;;;;;5093210;28;20176;-49
2023/06/16 08:40:13;;;;;;;5.03;3.70;;;25.40;94.20;;;;;;5093575;28;20169;-49
2023/06/16 08:42:40;;;;;;;4.07;3.58;;;25.00;95.10;;;;;;5093118;28;20197;-49
2023/06/16 08:45:06;;;;;;;5.15;4.00;;;25.30;96.30;;;;;;5093467;28;20216;-49
2023/06/16 08:47:34;;;;;;;7.78;4.38;;;25.60;95.50;;;;;;5093781;28;20638;-49
2023/06/16 08:50:00;;;;;;;5.28;3.67;;;25.40;95.00;;;;;;5093381;28;20177;-48
2023/06/16 08:52:29;;;;;;;5.72;3.97;;;25.20;94.10;;;;;;5093285;28;20199;-49
2023/06/16 08:55:01;;;;;;;7.60;3.78;;;25.50;94.60;;;;;;5092981;28;20223;-49
2023/06/16 08:57:27;;;;;;;7.18;3.72;;;25.20;92.00;;;;;;5092797;28;20541;-48
2023/06/16 08:59:56;;;;;;;9.40;4.15;;;25.50;91.70;;;;;;5093140;28;20169;-49
2023/06/16 09:02:23;;;;;;;4.65;3.50;;;25.60;89.90;;;;;;5092869;28;20248;-49
2023/06/16 09:04:50;;;;;;;4.93;3.90;;;25.30;87.60;;;;;;5093222;28;20216;-48
2023/06/16 09:07:19;;;;;;;6.60;3.78;;;25.60;85.40;;;;;;5092868;28;20251;-48
2023/06/16 09:09:45;;;;;;;8.57;4.07;;;25.60;87.20;;;;;;5092961;28;20184;-48
2023/06/16 09:12:11;;;;;;;5.05;3.90;;;25.40;87.60;;;;;;5092669;28;20169;-48
2023/06/16 09:14:38;;;;;;;5.68;4.03;;;;;;;;;;5092664;28;20169;-48
2023/06/16 09:17:05;;;;;;;6.15;3.55;;;24.70;80.00;;;;;;5092895;28;20660;-49
2023/06/16 09:19:34;;;;;;;5.97;4.22;;;26.10;81.70;;;;;;5092440;28;20664;-49
2023/06/16 09:22:00;;;;;;;6.60;3.95;;;25.90;82.00;;;;;;5092614;28;20173;-51
2023/06/16 09:24:27;;;;;;;5.43;3.88;;;26.40;82.70;;;;;;5091652;28;20209;-51
2023/06/16 09:26:57;;;;;;;4.43;3.40;;;26.50;82.70;;;;;;5092402;28;20161;-51
2023/06/16 09:29:24;;;;;;;6.82;3.55;;;26.20;79.50;;;;;;5092321;28;20301;-51
2023/06/16 09:31:50;;;;;;;6.53;4.40;;;26.60;81.20;;;;;;5092275;28;20636;-49
2023/06/16 09:34:16;;;;;;;5.18;3.63;;;26.40;81.10;;;;;;5092295;28;20180;-49
2023/06/16 09:36:42;;;;;;;8.27;4.05;;;26.50;76.90;;;;;;5092438;28;20165;-49
2023/06/16 09:39:24;;;;;;;8.25;3.72;;;26.60;76.20;;;;;;5092127;28;20625;-49
2023/06/16 09:41:50;;;;;;;7.03;3.75;;;26.90;77.40;;;;;;5092424;28;20527;-49
2023/06/16 09:44:16;;;;;;;4.38;3.97;;;26.80;77.70;;;;;;5073815;28;20197;-49
2023/06/16 09:46:43;;;;;;;6.95;4.05;;;26.30;78.10;;;;;;5092101;28;20167;-49
2023/06/16 09:49:21;;;;;;;6.18;4.13;;;27.00;77.90;;;;;;5091975;28;20161;-49
2023/06/16 09:51:57;;;;;;;4.28;3.75;;;26.70;76.80;;;;;;5091975;28;20188;-49
2023/06/16 09:54:25;;;;;;;6.22;3.65;;;26.80;79.10;;;;;;5091968;28;20170;-49
2023/06/16 09:56:51;;;;;;;7.43;3.92;;;26.90;75.40;;;;;;5092036;28;20195;-49
2023/06/16 09:59:17;;;;;;;5.68;4.22;;;26.90;75.90;;;;;;5091861;28;20161;-49
2023/06/16 10:01:45;;;;;;;4.18;3.55;;;26.80;74.50;;;;;;5091674;28;20259;-49
2023/06/16 10:04:14;;;;;;;6.70;3.97;;;26.70;74.60;;;;;;5091643;28;20196;-50
2023/06/16 10:07:02;;;;;;;7.95;4.15;;;26.90;74.90;;;;;;5092034;28;20221;-49
2023/06/16 10:09:37;;;;;;;4.55;4.03;;;27.40;73.20;;;;;;5091717;28;20187;-49
2023/06/16 10:12:03;;;;;;;7.80;4.30;;;27.60;74.10;;;;;;5092277;28;20164;-49
2023/06/16 10:14:33;;;;;;;10.82;4.60;;;27.20;72.90;;;;;;5091836;28;20496;-49
2023/06/16 10:17:00;;;;;;;4.65;3.70;;;27.60;72.70;;;;;;5091554;28;20157;-49
2023/06/16 10:19:26;;;;;;;8.00;4.40;;;27.40;73.40;;;;;;5091696;28;20684;-49
2023/06/16 10:21:53;;;;;;;6.63;3.70;;;27.40;73.20;;;;;;5091686;28;20168;-49
2023/06/16 10:24:19;;;;;;;7.75;3.67;;;27.60;73.10;;;;;;5091131;28;20643;-49
2023/06/16 10:26:46;;;;;;;5.40;3.83;;;27.80;71.40;;;;;;5091668;28;20571;-49
2023/06/16 10:29:16;;;;;;;12.40;4.18;;;27.90;69.10;;;;;;5091780;28;20171;-49
2023/06/16 10:31:43;;;;;;;6.50;4.03;;;27.90;68.90;;;;;;5091474;28;20581;-49
2023/06/16 10:34:18;;;;;;;4.65;4.00;;;27.60;69.50;;;;;;5091413;28;20169;-49
2023/06/16 10:36:43;;;;;;;6.78;4.40;;;27.80;69.50;;;;;;5095686;28;20531;-49
2023/06/16 10:39:15;;;;;;;6.50;4.03;;;28.00;68.70;;;;;;5095663;28;20165;-49
2023/06/16 10:41:52;;;;;;;6.47;3.90;;;28.30;69.70;;;;;;5095647;28;20194;-49
2023/06/16 10:44:22;;;;;;;5.65;4.00;;;28.20;69.60;;;;;;5095530;28;20658;-49
2023/06/16 10:47:13;;;;;;;4.63;4.10;;;28.40;68.00;;;;;;5095331;28;20643;-49
2023/06/16 10:49:50;;;;;;;4.65;3.80;;;28.30;68.30;;;;;;5095620;28;20564;-49
2023/06/16 10:52:17;;;;;;;3.95;3.55;;;28.40;68.20;;;;;;5095487;28;20233;-49
2023/06/16 10:54:48;;;;;;;6.57;4.32;;;28.20;66.70;;;;;;5095152;28;20161;-50
2023/06/16 10:57:14;;;;;;;7.00;3.83;;;28.40;67.70;;;;;;5095073;28;20181;-49
2023/06/16 10:59:56;;;;;;;7.75;4.20;;;28.60;64.40;;;;;;5095268;28;20256;-50
2023/06/16 11:02:23;;;;;;;4.25;3.85;;;28.80;64.10;;;;;;5095030;28;20172;-50
2023/06/16 11:05:22;;;;;;;4.85;3.80;;;28.30;65.20;;;;;;5095374;28;20200;-50
2023/06/16 11:08:05;;;;;;;4.65;3.88;;;28.50;64.50;;;;;;5076129;28;20686;-50
2023/06/16 11:10:50;;;;;;;5.38;4.00;;;28.40;63.80;;;;;;5095073;28;20217;-50
2023/06/16 11:13:23;;;;;;;5.50;3.72;;;28.90;65.70;;;;;;5095103;28;20203;-50
2023/06/16 11:15:49;;;;;;;7.10;4.32;;;28.70;62.80;;;;;;5095011;28;20157;-50
2023/06/16 11:18:16;;;;;;;3.92;3.53;;;28.80;63.30;;;;;;5094946;28;20628;-50
2023/06/16 11:20:42;;;;;;;4.97;4.45;;;29.00;63.40;;;;;;5094760;28;20628;-50
2023/06/16 11:23:08;;;;;;;4.00;3.50;;;29.00;63.20;;;;;;5095042;28;20176;-49
2023/06/16 11:25:36;;;;;;;4.28;3.88;;;28.70;63.00;;;;;;5095047;28;20200;-50
2023/06/16 11:28:02;;;;;;;4.45;3.67;;;28.90;64.10;;;;;;5095389;28;20178;-50
2023/06/16 11:30:29;;;;;;;6.40;4.00;;;28.80;62.50;;;;;;5094542;28;20590;-50
2023/06/16 11:32:57;;;;;;;7.45;3.58;;;28.50;62.20;;;;;;5094860;28;20172;-50
2023/06/16 11:35:32;;;;;;;5.68;3.55;;;28.60;62.60;;;;;;5094835;28;20173;-50
2023/06/16 11:37:59;;;;;;;4.50;3.65;;;28.50;62.00;;;;;;5094408;28;20624;-50
2023/06/16 11:40:27;;;;;;;3.92;3.40;;;28.10;61.80;;;;;;5094596;28;20183;-50
2023/06/16 11:42:58;;;;;;;6.15;3.65;;;28.20;61.50;;;;;;5094426;28;20247;-50
2023/06/16 11:45:26;;;;;;;4.18;3.75;;;28.10;60.20;;;;;;5094433;28;20217;-50
2023/06/16 11:47:57;;;;;;;4.72;4.22;;;27.90;62.00;;;;;;5093234;28;20164;-50
2023/06/16 11:50:23;;;;;;;4.35;3.58;;;27.50;63.20;;;;;;5094279;28;20168;-49
2023/06/16 11:52:50;;;;;;;4.57;3.78;;;28.60;62.60;;;;;;5094228;28;20165;-49
2023/06/16 11:55:15;;;;;;;5.20;3.55;;;28.40;61.60;;;;;;5094197;28;20704;-49
2023/06/16 11:57:41;;;;;;;6.82;4.50;;;28.60;62.00;;;;;;5094000;28;20207;-50
2023/06/16 12:00:08;;;;;;;4.80;3.40;;;28.80;59.80;;;;;;5093969;28;20161;-49
2023/06/16 12:02:35;;;;;;;4.00;3.60;;;28.90;60.70;;;;;;5094425;28;20161;-49
2023/06/16 12:05:03;;;;;;;13.00;4.05;;;28.90;62.20;;;;;;5094297;28;20560;-50
2023/06/16 12:07:30;;;;;;;5.85;3.80;;;29.00;59.80;;;;;;5093865;28;20710;-50
2023/06/16 12:09:56;;;;;;;4.22;3.47;;;28.60;59.20;;;;;;5093911;28;20164;-49
2023/06/16 12:12:25;;;;;;;5.47;3.92;;;28.90;60.80;;;;;;5093845;28;20244;-50
2023/06/16 12:14:51;;;;;;;4.40;3.63;;;29.10;61.10;;;;;;5094072;28;20180;-49
2023/06/16 12:17:17;;;;;;;9.00;4.05;;;29.20;60.20;;;;;;5094021;28;20165;-49
2023/06/16 12:19:45;;;;;;;4.68;4.13;;;29.20;60.00;;;;;;5093707;28;20175;-49
2023/06/16 12:22:10;;;;;;;5.95;3.95;;;29.10;58.50;;;;;;5093741;28;20165;-50
2023/06/16 12:24:39;;;;;;;7.13;3.55;;;29.20;59.30;;;;;;5093538;28;20203;-49
2023/06/16 12:27:05;;;;;;;5.68;4.00;;;29.10;58.80;;;;;;5094169;28;20241;-49
2023/06/16 12:29:31;;;;;;;4.63;4.10;;;28.90;59.50;;;;;;5093865;28;20612;-49
2023/06/16 12:31:58;;;;;;;7.43;4.05;;;29.50;58.60;;;;;;5093469;28;20172;-49
2023/06/16 12:34:32;;;;;;;7.25;3.92;;;29.10;59.30;;;;;;5093474;28;20169;-49
2023/06/16 12:37:07;;;;;;;5.97;3.80;;;29.00;58.50;;;;;;5093225;28;20161;-49
2023/06/16 12:39:33;;;;;;;4.75;4.25;;;29.60;60.10;;;;;;5094001;28;20164;-49
2023/06/16 12:42:01;;;;;;;5.20;3.72;;;30.00;59.30;;;;;;5093295;28;20202;-49
2023/06/16 12:44:46;;;;;;;6.10;3.85;;;29.50;57.60;;;;;;5093065;28;20208;-49
2023/06/16 12:47:18;;;;;;;7.45;4.35;;;29.70;56.60;;;;;;5093054;28;20164;-49
2023/06/16 12:49:43;;;;;;;6.03;3.95;;;29.10;56.50;;;;;;5093190;28;20169;-49